Arrowsic, Maine
Current Conditions -  °F | °C
As of 6:25 AM on Thursday 27 Nov 2014 (Local Time) from KIWI Reporting Station
Light Snow Light Snow  
Wind Chill: 25°   Ceiling: 1900
Heat Index: 30°   Visibility: 5mi
Dew Point: 26°   Wind: 5mph
Humidity: 85%   Direction: NA
Pressure: 29.79"   Gusts: NA
Location:  43.8797°N, 69.8408°W
Report Text: KIWI 271125Z AUTO VRB04KT 5SM -SN BR BKN019 OVC050 M01/M03 A2979 RMK AO2 P0000 T10111033
Loading
Personal Weather Stations






























Interactive Weather Map New forecast layout! Learn more

10-Day Weather Forecast

Advertisements
Track Severe Weather on mobile